x

Big Carlos Pass, Fl (bgcf1) Weather Station

4:54am - Wed 30th Jul 2014 All times are EDT. -4 hours from GMT.

  • Wind
    3mph, 7mph gusts
  • Air Temp 85°f
  • Sea Pressure 1014.7mb
  • Big Carlos Pass, Fl
  • Big Carlos Pass, Fl

More Historic Weather Station data

Upgrade to MSW Pro to gain access to the past 30 days of data for over 8000 Wavebouys and Weather Stations around the globe.

Join Pro

Comparision Forecast

View Surf forecast
   
Wed 07/30 4:54am 3 7 mph 1014.7mb 85f
4:48am 6 9 mph 1014.7mb 85f
3:54am 6 9 mph 1014.9mb 85f
3:48am 5 8 mph 1014.9mb 85f
2:54am 6 8 mph 1015.1mb 85f
2:48am 5 9 mph 1015.1mb 84f
1:54am 8 11 mph 1015.5mb 86f
1:48am 9 11 mph 1015.6mb 86f
12:54am 13 15 mph 1015.6mb 86f
12:48am 11 14 mph 1015.6mb 86f
Tue 07/29 11:54pm 6 10 mph 1015.8mb 86f
11:48pm 7 10 mph 1015.8mb 86f
10:54pm 8 11 mph 1015.6mb 85f
10:48pm 9 11 mph 1015.6mb 85f
9:54pm 13 14 mph 1015.6mb 85f
9:48pm 10 14 mph 1015.6mb 85f
8:54pm 9 13 mph 1015.9mb 85f
8:48pm 6 10 mph 1015.9mb 85f
7:54pm 7 10 mph 1015.5mb 85f
7:48pm 7 9 mph 1015.6mb 85f
6:54pm 10 15 mph 1015.5mb 87f
6:48pm 13 18 mph 1015.6mb 87f
5:54pm 5 7 mph 1015.4mb 87f
5:48pm 8 13 mph 1015.5mb 86f
4:54pm 9 15 mph 1015.5mb 88f
4:48pm 10 14 mph 1015.6mb 88f
3:54pm 15 18 mph 1015.5mb 87f
3:48pm 5 14 mph 1015.7mb 85f
2:54pm 17 20 mph 1016mb 88f
2:48pm 17 20 mph 1016.1mb 88f
1:54pm 15 18 mph 1016.6mb 88f
1:48pm 14 17 mph 1016.6mb 87f
12:54pm 14 16 mph 1016.6mb 87f
12:48pm 14 15 mph 1016.7mb 87f
11:54am 13 17 mph 1017mb 87f
11:48am 13 16 mph 1017mb 87f
10:54am 8 11 mph 1017.1mb 87f
10:48am 9 15 mph 1017mb 87f
9:54am 11 15 mph 1016.5mb 87f
9:48am 13 15 mph 1016.5mb 86f
8:54am 14 17 mph 1016.1mb 87f
8:48am 13 17 mph 1016.1mb 87f
7:54am 15 18 mph 1015.8mb 86f
7:48am 15 18 mph 1015.7mb 86f
6:54am 14 17 mph 1015.4mb 86f
6:48am 14 17 mph 1015.4mb 86f
5:54am 14 15 mph 1015.2mb 86f
5:48am 15 18 mph 1015.1mb 86f
4:54am 14 17 mph 1015mb 85f
4:48am 15 17 mph 1015mb 86f
3:54am 11 15 mph 1015.6mb 86f
3:48am 14 16 mph 1015.6mb 86f
2:54am 10 14 mph 1016.3mb 86f
2:48am 11 15 mph 1016.3mb 86f
1:54am 13 15 mph 1016.7mb 86f
1:48am 13 15 mph 1016.7mb 86f
12:54am 11 14 mph 1016.9mb 86f
12:48am 10 13 mph 1017mb 86f
Mon 07/28 11:54pm 8 11 mph 1017.4mb 86f
11:48pm 8 11 mph 1017.4mb 86f
10:54pm 9 14 mph 1017.4mb 86f
10:48pm 10 14 mph 1017.5mb 86f
9:54pm 9 13 mph 1017.3mb 86f
9:48pm 9 14 mph 1017.2mb 86f
8:54pm 8 13 mph 1017mb 86f
8:48pm 6 8 mph 1017mb 87f
7:54pm 10 11 mph 1017mb 87f
7:48pm 8 11 mph 1017mb 87f
6:54pm 10 13 mph 1017mb 87f
6:48pm 10 13 mph 1017mb 87f
5:54pm 11 14 mph 1017.3mb 87f
5:48pm 11 15 mph 1017.5mb 87f
4:54pm 13 15 mph 1017.4mb 87f
4:48pm 13 15 mph 1017.5mb 87f
3:54pm 11 14 mph 1017.8mb 86f
3:48pm 11 14 mph 1017.8mb 86f
2:54pm 9 10 mph 1018.7mb 85f
2:48pm 8 11 mph 1018.8mb 85f
1:54pm 5 8 mph 1019mb 86f
1:48pm 3 6 mph 1019mb 86f